createdAt,value
2017-11-24T00:00:00.284Z,19.03
2017-11-24T00:02:27.703Z,8.60
2017-11-24T00:04:55.127Z,10.10
2017-11-24T00:07:22.539Z,13.53
2017-11-24T00:09:49.953Z,11.73
2017-11-24T00:12:17.365Z,11.07
2017-11-24T00:14:44.771Z,12.30
2017-11-24T00:17:12.955Z,11.53
2017-11-24T00:19:41.134Z,7.33
2017-11-24T00:22:08.596Z,13.30
2017-11-24T00:24:36.115Z,10.23
2017-11-24T00:27:03.567Z,13.53
2017-11-24T00:29:31.169Z,7.77
2017-11-24T00:31:58.582Z,11.87
2017-11-24T00:34:26.801Z,7.80
2017-11-24T00:36:54.209Z,9.63
2017-11-24T00:39:21.615Z,15.80
2017-11-24T00:41:49.817Z,13.50
2017-11-24T00:44:17.292Z,8.67
2017-11-24T00:46:44.729Z,8.80
2017-11-24T00:49:12.922Z,17.03
2017-11-24T00:51:41.087Z,16.93
2017-11-24T00:54:08.501Z,11.73
2017-11-24T00:56:35.969Z,8.50
2017-11-24T00:59:03.450Z,14.53
2017-11-24T01:01:30.852Z,16.60
2017-11-24T01:03:58.379Z,11.93
2017-11-24T01:06:25.793Z,10.00
2017-11-24T01:08:58.880Z,9.57
2017-11-24T01:11:26.287Z,12.73
2017-11-24T01:13:54.495Z,5.80
2017-11-24T01:16:21.960Z,9.57
2017-11-24T01:18:49.372Z,8.83
2017-11-24T01:21:16.783Z,10.03
2017-11-24T01:23:44.985Z,15.50
2017-11-24T01:26:12.393Z,9.40
2017-11-24T01:28:39.803Z,17.60
2017-11-24T01:31:07.976Z,10.70
2017-11-24T01:33:36.202Z,9.63
2017-11-24T01:36:04.373Z,15.03
2017-11-24T01:38:32.546Z,7.90
2017-11-24T01:41:00.959Z,8.80
2017-11-24T01:43:28.356Z,16.00
2017-11-24T01:45:55.799Z,13.13
2017-11-24T01:48:23.207Z,17.63
2017-11-24T01:50:50.610Z,21.13
2017-11-24T01:53:18.792Z,15.03
2017-11-24T01:55:46.958Z,15.87
2017-11-24T01:58:14.378Z,12.30
2017-11-24T02:00:41.787Z,8.53
2017-11-24T02:03:09.340Z,15.53
2017-11-24T02:05:36.751Z,10.80
2017-11-24T02:08:04.964Z,12.30
2017-11-24T02:10:32.367Z,8.60
2017-11-24T02:12:59.783Z,24.80
2017-11-24T02:15:27.967Z,17.13
2017-11-24T02:17:55.388Z,14.10
2017-11-24T02:20:22.798Z,10.27
2017-11-24T02:22:50.983Z,14.33
2017-11-24T02:25:19.155Z,19.17
2017-11-24T02:27:47.337Z,15.63
2017-11-24T02:30:14.751Z,16.37
2017-11-24T02:32:42.211Z,12.80
2017-11-24T02:35:09.699Z,22.23
2017-11-24T02:37:37.096Z,19.63
2017-11-24T02:40:04.516Z,14.53
2017-11-24T02:42:32.009Z,14.87
2017-11-24T02:44:59.416Z,14.10
2017-11-24T02:47:26.826Z,15.63
2017-11-24T02:49:54.240Z,13.40
2017-11-24T02:52:21.653Z,11.60
2017-11-24T02:54:49.063Z,10.13
2017-11-24T02:57:16.478Z,18.43
2017-11-24T02:59:44.663Z,13.13
2017-11-24T03:02:12.858Z,16.60
2017-11-24T03:04:40.322Z,12.40
2017-11-24T03:07:07.811Z,10.33
2017-11-24T03:09:35.288Z,13.10
2017-11-24T03:12:02.757Z,18.20
2017-11-24T03:14:30.174Z,14.97
2017-11-24T03:16:59.088Z,16.93
2017-11-24T03:19:27.272Z,14.33
2017-11-24T03:21:55.479Z,15.30
2017-11-24T03:24:22.887Z,10.40
2017-11-24T03:26:50.294Z,16.83
2017-11-24T03:29:18.507Z,11.20
2017-11-24T03:31:45.976Z,8.73
2017-11-24T03:34:13.384Z,12.60
2017-11-24T03:36:40.788Z,13.57
2017-11-24T03:39:08.962Z,14.73
2017-11-24T03:41:36.473Z,15.00
2017-11-24T03:44:04.626Z,12.83
2017-11-24T03:46:32.805Z,14.10
2017-11-24T03:49:00.213Z,15.23
2017-11-24T03:51:27.614Z,13.40
2017-11-24T03:53:55.022Z,11.27
2017-11-24T03:56:23.195Z,21.83
2017-11-24T03:58:51.367Z,17.77
2017-11-24T04:01:18.781Z,11.50
2017-11-24T04:03:46.183Z,14.10
2017-11-24T04:06:13.604Z,12.57
2017-11-24T04:08:41.003Z,9.53
2017-11-24T04:11:08.433Z,22.40
2017-11-24T04:13:36.601Z,9.30
2017-11-24T04:16:04.007Z,17.10
2017-11-24T04:18:31.467Z,14.53
2017-11-24T04:20:58.884Z,10.63
2017-11-24T04:23:26.301Z,18.53
2017-11-24T04:25:53.708Z,12.07
2017-11-24T04:28:21.142Z,16.27
2017-11-24T04:30:48.561Z,15.60
2017-11-24T04:33:15.971Z,16.10
2017-11-24T04:35:43.446Z,18.20
2017-11-24T04:38:10.907Z,23.87
2017-11-24T04:40:38.367Z,12.37
2017-11-24T04:43:05.855Z,14.17
2017-11-24T04:45:33.331Z,13.50
2017-11-24T04:48:00.751Z,10.60
2017-11-24T04:50:28.267Z,16.50
2017-11-24T04:52:55.679Z,13.13
2017-11-24T04:55:23.078Z,20.23
2017-11-24T04:57:51.288Z,13.03
2017-11-24T05:00:18.691Z,15.50
2017-11-24T05:02:46.125Z,13.77
2017-11-24T05:05:14.303Z,10.90
2017-11-24T05:07:41.716Z,11.70
2017-11-24T05:10:09.163Z,19.43
2017-11-24T05:12:36.614Z,21.37
2017-11-24T05:15:04.787Z,14.13
2017-11-24T05:17:32.195Z,14.40
2017-11-24T05:19:59.619Z,14.90
2017-11-24T05:22:27.107Z,16.13
2017-11-24T05:24:54.569Z,13.67
2017-11-24T05:27:21.985Z,23.53
2017-11-24T05:29:49.399Z,18.10
2017-11-24T05:32:17.001Z,15.70
2017-11-24T05:34:44.415Z,12.43
2017-11-24T05:37:12.635Z,24.57
2017-11-24T05:39:40.104Z,15.77
2017-11-24T05:42:07.520Z,11.20
2017-11-24T05:44:34.929Z,10.60
2017-11-24T05:47:02.344Z,15.30
2017-11-24T05:49:29.749Z,8.40
2017-11-24T05:51:57.976Z,13.57
2017-11-24T05:54:25.384Z,8.50
2017-11-24T05:56:52.883Z,14.10
2017-11-24T05:59:20.345Z,9.70
2017-11-24T06:01:48.514Z,16.10
2017-11-24T06:04:16.710Z,18.37
2017-11-24T06:06:44.883Z,14.33
2017-11-24T06:09:13.063Z,13.83
2017-11-24T06:11:40.553Z,17.90
2017-11-24T06:14:08.728Z,13.50
2017-11-24T06:16:36.949Z,20.80
2017-11-24T06:19:04.411Z,14.53
2017-11-24T06:21:32.604Z,16.83
2017-11-24T06:24:00.035Z,15.20
2017-11-24T06:26:27.448Z,22.27
2017-11-24T06:28:54.891Z,17.70
2017-11-24T06:31:22.332Z,18.30
2017-11-24T06:33:49.746Z,14.57
2017-11-24T06:36:17.168Z,11.87
2017-11-24T06:38:44.579Z,16.20
2017-11-24T06:41:11.994Z,17.10
2017-11-24T06:43:39.408Z,17.60
2017-11-24T06:46:06.887Z,14.33
2017-11-24T06:48:34.356Z,10.47
2017-11-24T06:51:01.764Z,30.90
2017-11-24T06:53:29.182Z,20.93
2017-11-24T06:55:56.657Z,18.70
2017-11-24T06:58:24.058Z,20.03
2017-11-24T07:00:51.478Z,18.43
2017-11-24T07:03:18.889Z,29.80
2017-11-24T07:05:46.292Z,14.87
2017-11-24T07:08:14.485Z,17.60
2017-11-24T07:10:42.703Z,11.47
2017-11-24T07:13:10.856Z,22.20
2017-11-24T07:15:39.063Z,17.10
2017-11-24T07:18:06.478Z,13.10
2017-11-24T07:20:33.922Z,18.83
2017-11-24T07:23:01.485Z,14.67
2017-11-24T07:25:28.878Z,15.60
2017-11-24T07:27:56.296Z,12.80
2017-11-24T07:30:23.795Z,19.47
2017-11-24T07:32:51.211Z,22.27
2017-11-24T07:35:18.721Z,17.00
2017-11-24T07:37:46.124Z,22.23
2017-11-24T07:40:13.531Z,23.13
2017-11-24T07:42:41.703Z,20.53
2017-11-24T07:45:09.216Z,19.00
2017-11-24T07:47:37.419Z,22.70
2017-11-24T07:50:04.846Z,23.03
2017-11-24T07:52:33.055Z,18.97
2017-11-24T07:55:01.256Z,13.93
2017-11-24T07:57:28.658Z,16.10
2017-11-24T07:59:56.287Z,14.57
2017-11-24T08:02:23.688Z,12.43
2017-11-24T08:04:51.092Z,13.40
2017-11-24T08:07:19.293Z,13.80
2017-11-24T08:09:46.699Z,20.47
2017-11-24T08:12:14.128Z,14.63
2017-11-24T08:14:41.603Z,16.23
2017-11-24T08:17:09.028Z,22.60
2017-11-24T08:19:36.458Z,18.17
2017-11-24T08:22:03.859Z,11.57
2017-11-24T08:24:31.291Z,12.03
2017-11-24T08:26:58.753Z,19.73
2017-11-24T08:29:26.160Z,18.30
2017-11-24T08:31:53.576Z,20.50
2017-11-24T08:34:21.012Z,10.73
2017-11-24T08:36:48.421Z,15.00
2017-11-24T08:39:15.829Z,18.80
2017-11-24T08:41:43.240Z,22.47
2017-11-24T08:44:10.635Z,8.57
2017-11-24T08:46:43.811Z,18.23
2017-11-24T08:49:17.770Z,18.70
2017-11-24T08:51:45.192Z,14.70
2017-11-24T08:54:13.364Z,14.93
2017-11-24T08:56:40.781Z,15.63
2017-11-24T08:59:08.243Z,17.33
2017-11-24T09:01:36.411Z,19.93
2017-11-24T09:04:04.587Z,30.13
2017-11-24T09:06:32.777Z,18.03
2017-11-24T09:09:00.960Z,70.30
2017-11-24T09:11:28.396Z,32.53
2017-11-24T09:13:55.783Z,25.43
2017-11-24T09:16:23.968Z,23.47
2017-11-24T09:18:52.139Z,18.57
2017-11-24T09:21:19.547Z,15.27
2017-11-24T09:23:46.960Z,16.00
2017-11-24T09:26:14.399Z,14.03
2017-11-24T09:28:42.695Z,19.67
2017-11-24T09:31:10.154Z,26.87
2017-11-24T09:33:37.544Z,15.30
2017-11-24T09:36:04.976Z,17.33
2017-11-24T09:38:32.452Z,20.77
2017-11-24T09:40:59.915Z,14.23
2017-11-24T09:43:27.324Z,20.00
2017-11-24T09:45:54.724Z,17.53
2017-11-24T09:48:22.131Z,13.53
2017-11-24T09:50:49.531Z,22.33
2017-11-24T09:53:16.964Z,20.67
2017-11-24T09:55:44.389Z,17.20
2017-11-24T09:58:13.306Z,16.13
2017-11-24T10:00:41.508Z,15.93
2017-11-24T10:03:09.019Z,18.97
2017-11-24T10:05:36.457Z,19.07
2017-11-24T10:08:04.611Z,31.20
2017-11-24T10:10:32.829Z,16.87
2017-11-24T10:13:00.227Z,14.43
2017-11-24T10:15:27.654Z,13.80
2017-11-24T10:17:55.083Z,20.37
2017-11-24T10:20:22.475Z,19.87
2017-11-24T10:22:50.692Z,13.47
2017-11-24T10:25:18.179Z,13.67
2017-11-24T10:27:45.629Z,13.93
2017-11-24T10:30:13.019Z,20.60
2017-11-24T10:32:40.458Z,11.50
2017-11-24T10:35:07.881Z,10.73
2017-11-24T10:37:35.395Z,7.43
2017-11-24T10:40:02.838Z,13.77
2017-11-24T10:42:30.327Z,7.87
2017-11-24T10:44:57.791Z,9.60
2017-11-24T10:47:25.284Z,8.43
2017-11-24T10:49:52.674Z,6.80
2017-11-24T10:52:20.091Z,7.43
2017-11-24T10:54:48.283Z,9.67
2017-11-24T10:57:15.764Z,9.67
2017-11-24T10:59:43.167Z,13.23
2017-11-24T11:02:10.591Z,10.47
2017-11-24T11:04:38.004Z,12.60
2017-11-24T11:07:05.431Z,10.30
2017-11-24T11:09:32.847Z,11.93
2017-11-24T11:12:00.287Z,9.47
2017-11-24T11:14:27.676Z,9.03
2017-11-24T11:16:55.087Z,13.47
2017-11-24T11:19:22.585Z,10.10
2017-11-24T11:21:49.971Z,8.97
2017-11-24T11:24:17.405Z,10.07
2017-11-24T11:26:44.805Z,10.03
2017-11-24T11:29:12.228Z,11.90
2017-11-24T11:31:39.705Z,7.97
2017-11-24T11:34:07.128Z,8.30
2017-11-24T11:36:34.535Z,9.23
2017-11-24T11:39:02.013Z,6.87
2017-11-24T11:41:29.415Z,7.40
2017-11-24T11:43:56.836Z,5.77
2017-11-24T11:46:25.008Z,7.90
2017-11-24T11:48:53.199Z,5.90
2017-11-24T11:51:21.364Z,8.00
2017-11-24T11:53:48.769Z,6.47
2017-11-24T11:56:16.175Z,5.53
2017-11-24T11:58:43.611Z,8.70
2017-11-24T12:01:11.017Z,9.93
2017-11-24T12:03:38.429Z,10.17
2017-11-24T12:06:06.595Z,7.83
2017-11-24T12:08:34.108Z,11.20
2017-11-24T12:11:01.596Z,10.17
2017-11-24T12:13:29.035Z,11.20
2017-11-24T12:15:56.449Z,13.17
2017-11-24T12:18:23.877Z,12.80
2017-11-24T12:20:52.027Z,8.83
2017-11-24T12:23:19.427Z,6.93
2017-11-24T12:25:46.831Z,9.53
2017-11-24T12:28:14.264Z,7.80
2017-11-24T12:30:42.454Z,3.90
2017-11-24T12:33:10.622Z,5.33
2017-11-24T12:35:38.816Z,7.37
2017-11-24T12:38:06.295Z,10.13
2017-11-24T12:40:33.743Z,11.67
2017-11-24T12:43:01.945Z,9.43
2017-11-24T12:45:29.354Z,9.70
2017-11-24T12:47:56.783Z,9.80
2017-11-24T12:50:24.240Z,9.30
2017-11-24T12:52:51.656Z,10.10
2017-11-24T12:55:19.065Z,13.17
2017-11-24T12:57:47.273Z,6.07
2017-11-24T13:00:15.429Z,9.20
2017-11-24T13:02:43.616Z,6.43
2017-11-24T13:05:11.831Z,5.90
2017-11-24T13:07:39.991Z,6.37
2017-11-24T13:10:08.151Z,7.60
2017-11-24T13:12:35.687Z,13.97
2017-11-24T13:15:03.317Z,7.10
2017-11-24T13:17:31.546Z,12.20
2017-11-24T13:19:58.951Z,9.67
2017-11-24T13:22:27.867Z,13.47
2017-11-24T13:24:56.050Z,8.57
2017-11-24T13:27:23.458Z,11.10
2017-11-24T13:29:51.026Z,17.00
2017-11-24T13:32:19.204Z,8.40
2017-11-24T13:34:46.628Z,10.20
2017-11-24T13:37:14.031Z,9.77
2017-11-24T13:39:41.626Z,9.43
2017-11-24T13:42:09.785Z,7.03
2017-11-24T13:44:37.961Z,10.07
2017-11-24T13:47:06.141Z,10.50
2017-11-24T13:49:34.353Z,15.70
2017-11-24T13:52:01.776Z,12.53
2017-11-24T13:54:30.016Z,8.10
2017-11-24T13:56:57.489Z,12.40
2017-11-24T13:59:24.919Z,8.70
2017-11-24T14:01:53.235Z,9.03
2017-11-24T14:04:20.646Z,12.77
2017-11-24T14:06:48.088Z,8.37
2017-11-24T14:09:15.498Z,10.33
2017-11-24T14:11:43.025Z,10.00
2017-11-24T14:14:10.416Z,13.77
2017-11-24T14:16:37.824Z,7.83
2017-11-24T14:19:06.042Z,14.10
2017-11-24T14:21:33.443Z,11.67
2017-11-24T14:24:00.890Z,11.10
2017-11-24T14:26:28.342Z,12.10
2017-11-24T14:28:56.487Z,8.97
2017-11-24T14:31:23.893Z,13.60
2017-11-24T14:33:51.304Z,9.20
2017-11-24T14:36:18.719Z,11.17
2017-11-24T14:38:46.201Z,13.70
2017-11-24T14:41:13.612Z,14.27
2017-11-24T14:43:41.128Z,9.00
2017-11-24T14:46:08.540Z,10.60
2017-11-24T14:48:35.981Z,11.47
2017-11-24T14:51:03.389Z,10.70
2017-11-24T14:53:30.794Z,11.67
2017-11-24T14:55:58.277Z,11.97
2017-11-24T14:58:25.687Z,13.27
2017-11-24T15:00:53.099Z,14.87
2017-11-24T15:03:20.601Z,12.43
2017-11-24T15:05:47.987Z,12.33
2017-11-24T15:08:15.416Z,11.27
2017-11-24T15:10:42.828Z,12.70
2017-11-24T15:13:10.233Z,10.77
2017-11-24T15:15:38.420Z,15.50
2017-11-24T15:18:05.824Z,17.43
2017-11-24T15:20:33.392Z,13.80
2017-11-24T15:23:00.789Z,10.97
2017-11-24T15:25:28.195Z,14.67
2017-11-24T15:27:55.620Z,13.77
2017-11-24T15:30:23.153Z,13.70
2017-11-24T15:32:51.294Z,18.70
2017-11-24T15:35:19.015Z,13.90
2017-11-24T15:37:47.291Z,16.43
2017-11-24T15:40:14.696Z,19.67
2017-11-24T15:42:42.100Z,11.37
2017-11-24T15:45:10.336Z,20.97
2017-11-24T15:47:37.731Z,13.13
2017-11-24T15:50:05.177Z,17.10
2017-11-24T15:52:32.593Z,17.37
2017-11-24T15:55:00.025Z,16.57
2017-11-24T15:57:27.644Z,18.83
2017-11-24T15:59:55.953Z,17.30
2017-11-24T16:02:23.355Z,24.47
2017-11-24T16:04:50.781Z,22.17
2017-11-24T16:07:18.959Z,15.37
2017-11-24T16:09:46.376Z,14.40
2017-11-24T16:12:13.783Z,19.93
2017-11-24T16:14:41.958Z,11.90
2017-11-24T16:17:09.359Z,14.83
2017-11-24T16:19:36.784Z,18.30
2017-11-24T16:22:04.303Z,11.93
2017-11-24T16:24:31.831Z,17.10
2017-11-24T16:26:59.346Z,13.33
2017-11-24T16:29:26.761Z,18.33
2017-11-24T16:31:54.175Z,18.47
2017-11-24T16:34:21.641Z,21.63
2017-11-24T16:36:49.057Z,13.80
2017-11-24T16:39:16.588Z,14.80
2017-11-24T16:41:44.739Z,18.03
2017-11-24T16:44:12.912Z,22.20
2017-11-24T16:46:40.430Z,19.47
2017-11-24T16:49:07.823Z,16.63
2017-11-24T16:51:35.237Z,18.37
2017-11-24T16:54:03.508Z,14.80
2017-11-24T16:56:30.919Z,15.17
2017-11-24T16:58:58.376Z,16.00
2017-11-24T17:01:25.857Z,15.73
2017-11-24T17:03:53.323Z,19.10
2017-11-24T17:06:20.740Z,18.07
2017-11-24T17:08:48.180Z,19.10
2017-11-24T17:11:15.583Z,18.97
2017-11-24T17:13:43.092Z,16.47
2017-11-24T17:16:10.511Z,20.77
2017-11-24T17:18:39.463Z,20.63
2017-11-24T17:21:06.895Z,20.97
2017-11-24T17:23:34.408Z,19.63
2017-11-24T17:26:01.893Z,27.60
2017-11-24T17:28:29.303Z,22.73
2017-11-24T17:30:57.488Z,24.13
2017-11-24T17:33:24.896Z,22.50
2017-11-24T17:35:52.356Z,22.50
2017-11-24T17:38:19.767Z,24.57
2017-11-24T17:40:47.181Z,21.27
2017-11-24T17:43:15.354Z,24.77
2017-11-24T17:45:42.859Z,22.40
2017-11-24T17:48:10.256Z,27.80
2017-11-24T17:50:37.667Z,23.70
2017-11-24T17:53:05.870Z,22.90
2017-11-24T17:55:33.283Z,29.40
2017-11-24T17:58:00.703Z,36.70
2017-11-24T18:00:28.124Z,26.83
2017-11-24T18:02:55.652Z,24.83
2017-11-24T18:05:23.816Z,29.13
2017-11-24T18:07:52.025Z,32.90
2017-11-24T18:10:19.430Z,24.30
2017-11-24T18:12:46.982Z,33.00
2017-11-24T18:15:14.388Z,27.40
2017-11-24T18:17:43.336Z,30.57
2017-11-24T18:20:11.517Z,31.53
2017-11-24T18:22:38.981Z,34.30
2017-11-24T18:25:06.447Z,34.10
2017-11-24T18:27:33.900Z,31.00
2017-11-24T18:30:01.402Z,38.70
2017-11-24T18:32:28.855Z,35.43
2017-11-24T18:34:56.264Z,40.67
2017-11-24T18:37:23.693Z,35.63
2017-11-24T18:39:51.171Z,38.27
2017-11-24T18:42:18.638Z,36.23
2017-11-24T18:44:46.792Z,36.43
2017-11-24T18:47:14.969Z,39.60
2017-11-24T18:49:42.385Z,39.17
2017-11-24T18:52:09.798Z,54.83
2017-11-24T18:54:37.418Z,42.47
2017-11-24T18:57:05.604Z,40.33
2017-11-24T18:59:33.079Z,47.63
2017-11-24T19:02:00.496Z,43.50
2017-11-24T19:04:28.000Z,46.20
2017-11-24T19:06:55.420Z,47.10
2017-11-24T19:09:22.840Z,47.53
2017-11-24T19:11:50.336Z,40.10
2017-11-24T19:14:17.730Z,49.80
2017-11-24T19:16:45.149Z,45.40
2017-11-24T19:19:12.553Z,46.90
2017-11-24T19:21:39.983Z,46.97
2017-11-24T19:24:07.428Z,47.50
2017-11-24T19:26:35.601Z,46.87
2017-11-24T19:29:03.019Z,53.73
2017-11-24T19:31:30.470Z,52.37
2017-11-24T19:33:57.880Z,47.60
2017-11-24T19:36:25.297Z,51.23
2017-11-24T19:38:53.475Z,54.80
2017-11-24T19:41:21.658Z,50.30
2017-11-24T19:43:49.832Z,51.87
2017-11-24T19:46:17.241Z,50.27
2017-11-24T19:48:44.713Z,46.73
2017-11-24T19:51:12.111Z,54.07
2017-11-24T19:53:39.531Z,49.50
2017-11-24T19:56:06.952Z,50.37
2017-11-24T19:58:34.485Z,55.20
2017-11-24T20:01:02.639Z,52.47
2017-11-24T20:03:30.824Z,49.77
2017-11-24T20:05:59.019Z,53.80
2017-11-24T20:08:26.455Z,52.97
2017-11-24T20:10:53.872Z,53.17
2017-11-24T20:13:21.332Z,52.20
2017-11-24T20:15:48.755Z,53.40
2017-11-24T20:18:16.176Z,59.80
2017-11-24T20:20:43.579Z,51.00
2017-11-24T20:23:10.987Z,48.60
2017-11-24T20:25:39.167Z,52.17
2017-11-24T20:28:07.386Z,49.07
2017-11-24T20:30:35.018Z,49.70
2017-11-24T20:33:02.423Z,54.30
2017-11-24T20:35:29.844Z,61.33
2017-11-24T20:37:57.354Z,52.63
2017-11-24T20:40:24.773Z,70.23
2017-11-24T20:42:52.298Z,58.93
2017-11-24T20:45:19.691Z,80.30
2017-11-24T20:47:47.116Z,87.43
2017-11-24T20:50:15.286Z,76.17
2017-11-24T20:52:43.458Z,69.20
2017-11-24T20:55:10.967Z,55.73
2017-11-24T20:57:38.444Z,49.67
2017-11-24T21:00:05.856Z,49.37
2017-11-24T21:02:33.325Z,49.13
2017-11-24T21:05:00.740Z,55.43
2017-11-24T21:07:28.235Z,50.97
2017-11-24T21:09:55.651Z,51.93
2017-11-24T21:12:23.822Z,59.07
2017-11-24T21:14:51.232Z,56.60
2017-11-24T21:17:18.655Z,57.40
2017-11-24T21:19:46.076Z,49.97
2017-11-24T21:22:13.546Z,46.13
2017-11-24T21:24:41.019Z,50.20
2017-11-24T21:27:08.418Z,64.83
2017-11-24T21:29:35.857Z,60.00
2017-11-24T21:32:03.315Z,55.60
2017-11-24T21:34:30.728Z,50.10
2017-11-24T21:36:58.131Z,59.23
2017-11-24T21:39:26.314Z,50.90
2017-11-24T21:41:54.520Z,55.43
2017-11-24T21:44:21.999Z,59.73
2017-11-24T21:46:49.566Z,61.67
2017-11-24T21:49:17.024Z,61.13
2017-11-24T21:51:44.434Z,59.13
2017-11-24T21:54:11.869Z,57.57
2017-11-24T21:56:39.337Z,61.30
2017-11-24T21:59:06.804Z,68.50
2017-11-24T22:01:34.225Z,61.30
2017-11-24T22:04:01.751Z,57.83
2017-11-24T22:06:29.175Z,73.07
2017-11-24T22:08:57.362Z,56.63
2017-11-24T22:11:24.768Z,58.63
2017-11-24T22:13:52.184Z,64.67
2017-11-24T22:16:19.710Z,60.63
2017-11-24T22:18:47.116Z,58.13
2017-11-24T22:21:14.543Z,68.57
2017-11-24T22:23:41.951Z,65.47
2017-11-24T22:26:09.387Z,63.70
2017-11-24T22:28:36.790Z,65.60
2017-11-24T22:31:04.243Z,59.33
2017-11-24T22:33:31.646Z,66.83
2017-11-24T22:35:59.139Z,54.33
2017-11-24T22:38:26.552Z,61.10
2017-11-24T22:40:53.962Z,59.70
2017-11-24T22:43:22.277Z,64.77
2017-11-24T22:45:50.431Z,59.00
2017-11-24T22:48:18.643Z,62.70
2017-11-24T22:50:46.052Z,58.13
2017-11-24T22:53:13.486Z,56.03
2017-11-24T22:55:40.879Z,65.73
2017-11-24T22:58:08.297Z,54.53
2017-11-24T23:00:36.471Z,63.23
2017-11-24T23:03:04.697Z,56.90
2017-11-24T23:05:32.155Z,56.63
2017-11-24T23:07:59.564Z,53.87
2017-11-24T23:10:26.971Z,59.23
2017-11-24T23:12:54.393Z,58.03
2017-11-24T23:15:21.795Z,56.43
2017-11-24T23:17:49.967Z,57.60
2017-11-24T23:20:17.394Z,50.60
2017-11-24T23:22:44.847Z,51.20
2017-11-24T23:25:12.324Z,51.63
2017-11-24T23:27:39.742Z,54.03
2017-11-24T23:30:07.258Z,54.53
2017-11-24T23:32:35.435Z,53.23
2017-11-24T23:35:02.870Z,58.10
2017-11-24T23:37:31.783Z,52.70
2017-11-24T23:40:00.009Z,55.57
2017-11-24T23:42:27.414Z,56.07
2017-11-24T23:44:55.047Z,56.20
2017-11-24T23:47:22.431Z,55.07
2017-11-24T23:49:49.859Z,55.20
2017-11-24T23:52:18.044Z,52.37
2017-11-24T23:54:46.242Z,54.77
2017-11-24T23:57:13.680Z,54.53
2017-11-24T23:59:41.863Z,45.95
